sensor_id;sensor_type;location;lat;lon;timestamp;P1;durP1;ratioP1;P2;durP2;ratioP2
47856;SDS011;33618;49.972;8.242;2022-08-18T00:00:32;11.77;;;8.15;;
47856;SDS011;33618;49.972;8.242;2022-08-18T00:03:00;9.20;;;8.40;;
47856;SDS011;33618;49.972;8.242;2022-08-18T00:05:51;8.40;;;7.13;;
47856;SDS011;33618;49.972;8.242;2022-08-18T00:08:18;9.05;;;8.00;;
47856;SDS011;33618;49.972;8.242;2022-08-18T00:10:45;8.32;;;7.47;;
47856;SDS011;33618;49.972;8.242;2022-08-18T00:13:12;8.32;;;6.88;;
47856;SDS011;33618;49.972;8.242;2022-08-18T00:15:39;8.77;;;7.10;;
47856;SDS011;33618;49.972;8.242;2022-08-18T00:18:14;7.88;;;7.18;;
47856;SDS011;33618;49.972;8.242;2022-08-18T00:20:41;8.43;;;7.60;;
47856;SDS011;33618;49.972;8.242;2022-08-18T00:30:44;8.48;;;7.40;;
47856;SDS011;33618;49.972;8.242;2022-08-18T00:33:35;8.27;;;7.22;;
47856;SDS011;33618;49.972;8.242;2022-08-18T00:36:02;7.68;;;7.07;;
47856;SDS011;33618;49.972;8.242;2022-08-18T00:38:29;8.45;;;7.63;;
47856;SDS011;33618;49.972;8.242;2022-08-18T00:40:56;8.13;;;7.38;;
47856;SDS011;33618;49.972;8.242;2022-08-18T00:46:21;8.95;;;7.00;;
47856;SDS011;33618;49.972;8.242;2022-08-18T00:55:55;9.90;;;7.45;;
47856;SDS011;33618;49.972;8.242;2022-08-18T00:58:28;7.97;;;7.18;;
47856;SDS011;33618;49.972;8.242;2022-08-18T01:01:02;8.77;;;7.57;;
47856;SDS011;33618;49.972;8.242;2022-08-18T01:03:31;8.35;;;7.40;;
47856;SDS011;33618;49.972;8.242;2022-08-18T01:06:06;8.55;;;7.63;;
47856;SDS011;33618;49.972;8.242;2022-08-18T01:08:40;7.72;;;7.13;;
47856;SDS011;33618;49.972;8.242;2022-08-18T01:11:08;10.70;;;6.88;;
47856;SDS011;33618;49.972;8.242;2022-08-18T01:13:35;8.25;;;7.30;;
47856;SDS011;33618;49.972;8.242;2022-08-18T01:16:06;8.30;;;7.50;;
47856;SDS011;33618;49.972;8.242;2022-08-18T01:21:40;10.68;;;8.02;;
47856;SDS011;33618;49.972;8.242;2022-08-18T01:24:18;7.35;;;6.75;;
47856;SDS011;33618;49.972;8.242;2022-08-18T01:27:15;8.38;;;7.35;;
47856;SDS011;33618;49.972;8.242;2022-08-18T01:29:47;8.02;;;7.28;;
47856;SDS011;33618;49.972;8.242;2022-08-18T01:32:19;7.85;;;7.05;;
47856;SDS011;33618;49.972;8.242;2022-08-18T01:34:48;8.15;;;7.38;;
47856;SDS011;33618;49.972;8.242;2022-08-18T01:37:18;9.73;;;7.57;;
47856;SDS011;33618;49.972;8.242;2022-08-18T01:39:47;6.65;;;6.15;;
47856;SDS011;33618;49.972;8.242;2022-08-18T01:42:36;7.40;;;6.85;;
47856;SDS011;33618;49.972;8.242;2022-08-18T01:45:04;14.98;;;7.07;;
47856;SDS011;33618;49.972;8.242;2022-08-18T01:47:33;7.22;;;6.63;;
47856;SDS011;33618;49.972;8.242;2022-08-18T01:57:44;9.00;;;7.18;;
47856;SDS011;33618;49.972;8.242;2022-08-18T02:00:13;8.10;;;7.22;;
47856;SDS011;33618;49.972;8.242;2022-08-18T02:02:42;7.75;;;7.05;;
47856;SDS011;33618;49.972;8.242;2022-08-18T02:05:11;7.55;;;6.90;;
47856;SDS011;33618;49.972;8.242;2022-08-18T02:07:41;7.45;;;6.85;;
47856;SDS011;33618;49.972;8.242;2022-08-18T02:10:11;7.25;;;6.65;;
47856;SDS011;33618;49.972;8.242;2022-08-18T02:12:42;7.75;;;7.05;;
47856;SDS011;33618;49.972;8.242;2022-08-18T02:15:09;7.22;;;6.50;;
47856;SDS011;33618;49.972;8.242;2022-08-18T02:17:38;7.57;;;6.88;;
47856;SDS011;33618;49.972;8.242;2022-08-18T02:20:08;8.50;;;7.00;;
47856;SDS011;33618;49.972;8.242;2022-08-18T02:22:38;7.60;;;6.90;;
47856;SDS011;33618;49.972;8.242;2022-08-18T02:25:06;7.70;;;6.90;;
47856;SDS011;33618;49.972;8.242;2022-08-18T02:27:33;7.75;;;7.05;;
47856;SDS011;33618;49.972;8.242;2022-08-18T02:30:01;7.95;;;7.20;;
47856;SDS011;33618;49.972;8.242;2022-08-18T02:32:32;7.47;;;6.80;;
47856;SDS011;33618;49.972;8.242;2022-08-18T02:34:59;8.05;;;7.25;;
47856;SDS011;33618;49.972;8.242;2022-08-18T02:37:26;7.22;;;6.32;;
47856;SDS011;33618;49.972;8.242;2022-08-18T02:39:53;6.95;;;6.40;;
47856;SDS011;33618;49.972;8.242;2022-08-18T02:42:20;7.90;;;7.10;;
47856;SDS011;33618;49.972;8.242;2022-08-18T02:44:47;7.97;;;7.15;;
47856;SDS011;33618;49.972;8.242;2022-08-18T02:47:14;8.50;;;7.15;;
47856;SDS011;33618;49.972;8.242;2022-08-18T02:56:48;7.82;;;7.03;;
47856;SDS011;33618;49.972;8.242;2022-08-18T02:59:18;8.07;;;7.28;;
47856;SDS011;33618;49.972;8.242;2022-08-18T03:01:50;8.95;;;7.30;;
47856;SDS011;33618;49.972;8.242;2022-08-18T03:04:24;8.13;;;6.82;;
47856;SDS011;33618;49.972;8.242;2022-08-18T03:06:57;6.88;;;6.28;;
47856;SDS011;33618;49.972;8.242;2022-08-18T03:09:26;7.35;;;6.65;;
47856;SDS011;33618;49.972;8.242;2022-08-18T03:11:54;7.47;;;6.80;;
47856;SDS011;33618;49.972;8.242;2022-08-18T03:14:22;7.18;;;6.68;;
47856;SDS011;33618;49.972;8.242;2022-08-18T03:16:49;7.60;;;6.88;;
47856;SDS011;33618;49.972;8.242;2022-08-18T03:19:24;7.13;;;6.53;;
47856;SDS011;33618;49.972;8.242;2022-08-18T03:21:54;7.80;;;6.95;;
47856;SDS011;33618;49.972;8.242;2022-08-18T03:24:28;7.95;;;7.15;;
47856;SDS011;33618;49.972;8.242;2022-08-18T03:26:55;7.57;;;6.88;;
47856;SDS011;33618;49.972;8.242;2022-08-18T03:29:23;7.72;;;6.93;;
47856;SDS011;33618;49.972;8.242;2022-08-18T03:31:57;8.10;;;7.30;;
47856;SDS011;33618;49.972;8.242;2022-08-18T03:34:24;7.28;;;6.63;;
47856;SDS011;33618;49.972;8.242;2022-08-18T03:36:51;7.13;;;6.55;;
47856;SDS011;33618;49.972;8.242;2022-08-18T03:39:19;8.13;;;7.30;;
47856;SDS011;33618;49.972;8.242;2022-08-18T03:41:49;7.10;;;6.40;;
47856;SDS011;33618;49.972;8.242;2022-08-18T03:44:24;7.32;;;6.68;;
47856;SDS011;33618;49.972;8.242;2022-08-18T03:46:53;7.22;;;6.60;;
47856;SDS011;33618;49.972;8.242;2022-08-18T03:56:50;7.93;;;7.22;;
47856;SDS011;33618;49.972;8.242;2022-08-18T03:59:24;10.57;;;7.00;;
47856;SDS011;33618;49.972;8.242;2022-08-18T04:01:53;7.90;;;7.10;;
47856;SDS011;33618;49.972;8.242;2022-08-18T04:04:23;9.57;;;7.75;;
47856;SDS011;33618;49.972;8.242;2022-08-18T04:06:54;8.68;;;7.78;;
47856;SDS011;33618;49.972;8.242;2022-08-18T04:09:31;11.23;;;8.43;;
47856;SDS011;33618;49.972;8.242;2022-08-18T04:12:09;9.55;;;8.57;;
47856;SDS011;33618;49.972;8.242;2022-08-18T04:14:42;8.90;;;8.00;;
47856;SDS011;33618;49.972;8.242;2022-08-18T04:17:13;9.60;;;8.60;;
47856;SDS011;33618;49.972;8.242;2022-08-18T04:19:49;9.50;;;8.43;;
47856;SDS011;33618;49.972;8.242;2022-08-18T04:22:21;9.93;;;8.82;;
47856;SDS011;33618;49.972;8.242;2022-08-18T04:24:49;9.90;;;8.38;;
47856;SDS011;33618;49.972;8.242;2022-08-18T04:27:17;10.23;;;9.13;;
47856;SDS011;33618;49.972;8.242;2022-08-18T04:29:45;12.02;;;9.05;;
47856;SDS011;33618;49.972;8.242;2022-08-18T04:32:12;10.15;;;9.10;;
47856;SDS011;33618;49.972;8.242;2022-08-18T04:34:40;9.82;;;8.82;;
47856;SDS011;33618;49.972;8.242;2022-08-18T04:37:07;13.38;;;8.95;;
47856;SDS011;33618;49.972;8.242;2022-08-18T04:39:35;9.30;;;8.43;;
47856;SDS011;33618;49.972;8.242;2022-08-18T04:42:02;10.43;;;8.77;;
47856;SDS011;33618;49.972;8.242;2022-08-18T04:44:31;13.25;;;9.02;;
47856;SDS011;33618;49.972;8.242;2022-08-18T04:46:59;9.30;;;8.40;;
47856;SDS011;33618;49.972;8.242;2022-08-18T04:56:57;13.48;;;8.68;;
47856;SDS011;33618;49.972;8.242;2022-08-18T04:59:24;11.68;;;9.05;;
47856;SDS011;33618;49.972;8.242;2022-08-18T05:01:51;14.55;;;8.40;;
47856;SDS011;33618;49.972;8.242;2022-08-18T05:04:18;10.65;;;8.40;;
47856;SDS011;33618;49.972;8.242;2022-08-18T05:06:45;12.10;;;8.32;;
47856;SDS011;33618;49.972;8.242;2022-08-18T05:09:12;9.02;;;8.20;;
47856;SDS011;33618;49.972;8.242;2022-08-18T05:11:42;9.05;;;8.00;;
47856;SDS011;33618;49.972;8.242;2022-08-18T05:14:10;10.38;;;8.63;;
47856;SDS011;33618;49.972;8.242;2022-08-18T05:16:37;12.15;;;8.07;;
47856;SDS011;33618;49.972;8.242;2022-08-18T05:19:15;11.68;;;8.20;;
47856;SDS011;33618;49.972;8.242;2022-08-18T05:21:49;9.73;;;8.55;;
47856;SDS011;33618;49.972;8.242;2022-08-18T05:24:18;12.85;;;8.80;;
47856;SDS011;33618;49.972;8.242;2022-08-18T05:26:46;12.10;;;8.23;;
47856;SDS011;33618;49.972;8.242;2022-08-18T05:29:14;10.00;;;7.93;;
47856;SDS011;33618;49.972;8.242;2022-08-18T05:31:45;13.30;;;8.52;;
47856;SDS011;33618;49.972;8.242;2022-08-18T05:34:12;9.98;;;8.15;;
47856;SDS011;33618;49.972;8.242;2022-08-18T05:41:53;9.25;;;8.07;;
47856;SDS011;33618;49.972;8.242;2022-08-18T05:44:34;8.95;;;7.72;;
47856;SDS011;33618;49.972;8.242;2022-08-18T05:49:36;9.43;;;7.80;;
47856;SDS011;33618;49.972;8.242;2022-08-18T05:55:47;8.52;;;7.72;;
47856;SDS011;33618;49.972;8.242;2022-08-18T05:58:48;12.52;;;8.25;;
47856;SDS011;33618;49.972;8.242;2022-08-18T06:01:18;9.52;;;8.48;;
47856;SDS011;33618;49.972;8.242;2022-08-18T06:03:53;8.32;;;7.53;;
47856;SDS011;33618;49.972;8.242;2022-08-18T06:06:27;9.80;;;8.20;;
47856;SDS011;33618;49.972;8.242;2022-08-18T06:11:35;13.63;;;8.93;;
47856;SDS011;33618;49.972;8.242;2022-08-18T06:14:02;9.75;;;8.27;;
47856;SDS011;33618;49.972;8.242;2022-08-18T06:17:34;11.00;;;8.40;;
47856;SDS011;33618;49.972;8.242;2022-08-18T06:25:01;9.23;;;8.32;;
47856;SDS011;33618;49.972;8.242;2022-08-18T06:27:39;9.88;;;8.85;;
47856;SDS011;33618;49.972;8.242;2022-08-18T06:35:58;9.98;;;8.85;;
47856;SDS011;33618;49.972;8.242;2022-08-18T06:46:40;15.90;;;10.80;;
47856;SDS011;33618;49.972;8.242;2022-08-18T06:59:35;12.40;;;9.75;;
47856;SDS011;33618;49.972;8.242;2022-08-18T07:02:13;10.55;;;9.55;;
47856;SDS011;33618;49.972;8.242;2022-08-18T07:05:04;10.93;;;9.60;;
47856;SDS011;33618;49.972;8.242;2022-08-18T07:07:38;11.65;;;9.20;;
47856;SDS011;33618;49.972;8.242;2022-08-18T07:15:45;9.82;;;8.82;;
47856;SDS011;33618;49.972;8.242;2022-08-18T07:18:19;11.35;;;9.05;;
47856;SDS011;33618;49.972;8.242;2022-08-18T07:20:55;10.10;;;9.07;;
47856;SDS011;33618;49.972;8.242;2022-08-18T07:26:07;9.63;;;8.73;;
47856;SDS011;33618;49.972;8.242;2022-08-18T07:28:47;9.55;;;8.65;;
47856;SDS011;33618;49.972;8.242;2022-08-18T07:34:03;9.35;;;8.48;;
47856;SDS011;33618;49.972;8.242;2022-08-18T07:36:37;9.95;;;8.88;;
47856;SDS011;33618;49.972;8.242;2022-08-18T07:39:27;10.18;;;8.18;;
47856;SDS011;33618;49.972;8.242;2022-08-18T08:01:10;11.52;;;8.65;;
47856;SDS011;33618;49.972;8.242;2022-08-18T08:03:58;8.88;;;7.78;;
47856;SDS011;33618;49.972;8.242;2022-08-18T08:12:36;10.13;;;8.98;;
47856;SDS011;33618;49.972;8.242;2022-08-18T08:18:14;9.77;;;8.73;;
47856;SDS011;33618;49.972;8.242;2022-08-18T08:20:58;11.50;;;9.05;;
47856;SDS011;33618;49.972;8.242;2022-08-18T08:31:57;12.85;;;11.20;;
47856;SDS011;33618;49.972;8.242;2022-08-18T08:34:42;13.60;;;11.43;;
47856;SDS011;33618;49.972;8.242;2022-08-18T08:37:23;15.00;;;11.52;;
47856;SDS011;33618;49.972;8.242;2022-08-18T08:39:59;17.85;;;12.15;;
47856;SDS011;33618;49.972;8.242;2022-08-18T08:43:00;11.20;;;9.80;;
47856;SDS011;33618;49.972;8.242;2022-08-18T08:45:29;12.88;;;11.32;;
47856;SDS011;33618;49.972;8.242;2022-08-18T08:50:54;10.38;;;9.27;;
47856;SDS011;33618;49.972;8.242;2022-08-18T08:56:49;14.98;;;8.77;;
47856;SDS011;33618;49.972;8.242;2022-08-18T08:59:19;10.15;;;8.35;;
47856;SDS011;33618;49.972;8.242;2022-08-18T09:05:09;14.40;;;7.82;;
47856;SDS011;33618;49.972;8.242;2022-08-18T09:10:44;9.63;;;8.32;;
47856;SDS011;33618;49.972;8.242;2022-08-18T09:21:57;9.05;;;8.07;;
47856;SDS011;33618;49.972;8.242;2022-08-18T09:24:48;9.30;;;8.35;;
47856;SDS011;33618;49.972;8.242;2022-08-18T09:30:38;9.38;;;8.48;;
47856;SDS011;33618;49.972;8.242;2022-08-18T09:36:22;13.55;;;7.97;;
47856;SDS011;33618;49.972;8.242;2022-08-18T09:41:56;9.95;;;8.45;;
47856;SDS011;33618;49.972;8.242;2022-08-18T10:13:38;12.15;;;9.57;;
47856;SDS011;33618;49.972;8.242;2022-08-18T10:18:51;10.55;;;9.32;;
47856;SDS011;33618;49.972;8.242;2022-08-18T10:24:33;10.52;;;9.30;;
47856;SDS011;33618;49.972;8.242;2022-08-18T10:27:06;10.10;;;9.02;;
47856;SDS011;33618;49.972;8.242;2022-08-18T10:29:42;10.20;;;9.20;;
47856;SDS011;33618;49.972;8.242;2022-08-18T10:34:44;14.43;;;10.35;;
47856;SDS011;33618;49.972;8.242;2022-08-18T10:37:24;9.98;;;8.50;;
47856;SDS011;33618;49.972;8.242;2022-08-18T10:42:39;12.02;;;9.60;;
47856;SDS011;33618;49.972;8.242;2022-08-18T10:45:59;11.25;;;10.05;;
47856;SDS011;33618;49.972;8.242;2022-08-18T10:49:01;10.05;;;9.05;;
47856;SDS011;33618;49.972;8.242;2022-08-18T10:58:31;10.75;;;9.35;;
47856;SDS011;33618;49.972;8.242;2022-08-18T11:01:15;10.00;;;9.05;;
47856;SDS011;33618;49.972;8.242;2022-08-18T11:03:59;10.85;;;9.40;;
47856;SDS011;33618;49.972;8.242;2022-08-18T11:07:03;9.57;;;8.68;;
47856;SDS011;33618;49.972;8.242;2022-08-18T11:09:43;10.25;;;8.43;;
47856;SDS011;33618;49.972;8.242;2022-08-18T11:20:45;10.10;;;8.90;;
47856;SDS011;33618;49.972;8.242;2022-08-18T11:23:14;9.85;;;8.85;;
47856;SDS011;33618;49.972;8.242;2022-08-18T11:25:42;12.05;;;9.00;;
47856;SDS011;33618;49.972;8.242;2022-08-18T11:28:18;10.32;;;8.93;;
47856;SDS011;33618;49.972;8.242;2022-08-18T11:30:57;9.75;;;8.80;;
47856;SDS011;33618;49.972;8.242;2022-08-18T11:33:25;9.63;;;8.82;;
47856;SDS011;33618;49.972;8.242;2022-08-18T11:35:54;9.70;;;8.80;;
47856;SDS011;33618;49.972;8.242;2022-08-18T11:38:23;9.18;;;8.38;;
47856;SDS011;33618;49.972;8.242;2022-08-18T11:41:08;9.52;;;8.57;;
47856;SDS011;33618;49.972;8.242;2022-08-18T11:43:44;10.20;;;8.02;;
47856;SDS011;33618;49.972;8.242;2022-08-18T11:46:49;8.82;;;8.00;;
47856;SDS011;33618;49.972;8.242;2022-08-18T11:49:18;8.88;;;8.07;;
47856;SDS011;33618;49.972;8.242;2022-08-18T11:51:56;9.10;;;8.30;;
47856;SDS011;33618;49.972;8.242;2022-08-18T12:05:45;7.65;;;6.95;;
47856;SDS011;33618;49.972;8.242;2022-08-18T12:18:13;6.47;;;5.97;;
47856;SDS011;33618;49.972;8.242;2022-08-18T12:24:24;6.75;;;6.05;;
47856;SDS011;33618;49.972;8.242;2022-08-18T12:27:02;6.50;;;6.00;;
47856;SDS011;33618;49.972;8.242;2022-08-18T12:37:55;5.85;;;5.35;;
47856;SDS011;33618;49.972;8.242;2022-08-18T12:40:38;5.78;;;5.25;;
47856;SDS011;33618;49.972;8.242;2022-08-18T12:43:05;6.22;;;5.72;;
47856;SDS011;33618;49.972;8.242;2022-08-18T12:45:32;7.10;;;6.07;;
47856;SDS011;33618;49.972;8.242;2022-08-18T12:48:02;7.10;;;6.28;;
47856;SDS011;33618;49.972;8.242;2022-08-18T12:50:32;12.35;;;7.97;;
47856;SDS011;33618;49.972;8.242;2022-08-18T12:53:15;10.30;;;7.13;;
47856;SDS011;33618;49.972;8.242;2022-08-18T12:55:43;7.55;;;6.95;;
47856;SDS011;33618;49.972;8.242;2022-08-18T12:58:11;6.93;;;5.78;;
47856;SDS011;33618;49.972;8.242;2022-08-18T13:00:38;6.25;;;5.80;;
47856;SDS011;33618;49.972;8.242;2022-08-18T13:03:06;6.43;;;5.82;;
47856;SDS011;33618;49.972;8.242;2022-08-18T13:05:34;7.68;;;5.90;;
47856;SDS011;33618;49.972;8.242;2022-08-18T13:08:03;6.15;;;5.60;;
47856;SDS011;33618;49.972;8.242;2022-08-18T13:10:31;5.93;;;5.43;;
47856;SDS011;33618;49.972;8.242;2022-08-18T13:13:11;5.70;;;5.20;;
47856;SDS011;33618;49.972;8.242;2022-08-18T13:15:39;5.40;;;5.00;;
47856;SDS011;33618;49.972;8.242;2022-08-18T13:18:24;10.80;;;5.63;;
47856;SDS011;33618;49.972;8.242;2022-08-18T13:20:55;6.05;;;5.55;;
47856;SDS011;33618;49.972;8.242;2022-08-18T13:23:23;6.25;;;5.68;;
47856;SDS011;33618;49.972;8.242;2022-08-18T13:25:53;5.95;;;5.45;;
47856;SDS011;33618;49.972;8.242;2022-08-18T13:28:28;5.93;;;5.53;;
47856;SDS011;33618;49.972;8.242;2022-08-18T13:31:01;5.90;;;5.50;;
47856;SDS011;33618;49.972;8.242;2022-08-18T13:40:53;6.40;;;5.80;;
47856;SDS011;33618;49.972;8.242;2022-08-18T13:43:40;6.45;;;5.85;;
47856;SDS011;33618;49.972;8.242;2022-08-18T13:46:09;6.15;;;5.55;;
47856;SDS011;33618;49.972;8.242;2022-08-18T13:48:41;5.70;;;5.20;;
47856;SDS011;33618;49.972;8.242;2022-08-18T13:51:10;6.25;;;5.75;;
47856;SDS011;33618;49.972;8.242;2022-08-18T13:53:44;6.00;;;5.28;;
47856;SDS011;33618;49.972;8.242;2022-08-18T13:56:24;6.80;;;6.18;;
47856;SDS011;33618;49.972;8.242;2022-08-18T13:58:57;7.15;;;6.45;;
47856;SDS011;33618;49.972;8.242;2022-08-18T14:01:24;6.20;;;5.70;;
47856;SDS011;33618;49.972;8.242;2022-08-18T14:04:11;6.93;;;6.30;;
47856;SDS011;33618;49.972;8.242;2022-08-18T14:06:45;7.33;;;6.33;;
47856;SDS011;33618;49.972;8.242;2022-08-18T14:09:22;6.53;;;6.03;;
47856;SDS011;33618;49.972;8.242;2022-08-18T14:12:06;7.15;;;6.20;;
47856;SDS011;33618;49.972;8.242;2022-08-18T14:14:48;7.10;;;6.25;;
47856;SDS011;33618;49.972;8.242;2022-08-18T14:17:20;6.80;;;6.20;;
47856;SDS011;33618;49.972;8.242;2022-08-18T14:19:53;7.88;;;7.05;;
47856;SDS011;33618;49.972;8.242;2022-08-18T14:22:51;7.47;;;6.68;;
47856;SDS011;33618;49.972;8.242;2022-08-18T14:25:38;8.32;;;6.05;;
47856;SDS011;33618;49.972;8.242;2022-08-18T14:28:25;6.32;;;5.82;;
47856;SDS011;33618;49.972;8.242;2022-08-18T14:30:53;8.65;;;7.20;;
47856;SDS011;33618;49.972;8.242;2022-08-18T14:33:23;7.72;;;5.63;;
47856;SDS011;33618;49.972;8.242;2022-08-18T14:40:24;6.43;;;5.85;;
47856;SDS011;33618;49.972;8.242;2022-08-18T14:42:52;7.07;;;5.95;;
47856;SDS011;33618;49.972;8.242;2022-08-18T14:45:21;7.00;;;6.28;;
47856;SDS011;33618;49.972;8.242;2022-08-18T14:48:00;6.25;;;5.75;;
47856;SDS011;33618;49.972;8.242;2022-08-18T14:50:33;6.70;;;6.20;;
47856;SDS011;33618;49.972;8.242;2022-08-18T14:53:02;7.00;;;6.40;;
47856;SDS011;33618;49.972;8.242;2022-08-18T14:55:30;6.75;;;6.15;;
47856;SDS011;33618;49.972;8.242;2022-08-18T14:57:59;7.13;;;6.43;;
47856;SDS011;33618;49.972;8.242;2022-08-18T15:00:27;7.30;;;6.70;;
47856;SDS011;33618;49.972;8.242;2022-08-18T15:02:54;7.72;;;7.10;;
47856;SDS011;33618;49.972;8.242;2022-08-18T15:05:25;6.80;;;6.30;;
47856;SDS011;33618;49.972;8.242;2022-08-18T15:07:59;7.25;;;6.75;;
47856;SDS011;33618;49.972;8.242;2022-08-18T15:10:29;8.30;;;7.50;;
47856;SDS011;33618;49.972;8.242;2022-08-18T15:12:56;7.65;;;7.05;;
47856;SDS011;33618;49.972;8.242;2022-08-18T15:15:26;8.38;;;7.68;;
47856;SDS011;33618;49.972;8.242;2022-08-18T15:18:13;8.63;;;7.80;;
47856;SDS011;33618;49.972;8.242;2022-08-18T15:20:48;8.15;;;7.32;;
47856;SDS011;33618;49.972;8.242;2022-08-18T15:23:44;8.63;;;7.80;;
47856;SDS011;33618;49.972;8.242;2022-08-18T15:26:44;8.20;;;7.50;;
47856;SDS011;33618;49.972;8.242;2022-08-18T15:29:17;8.95;;;8.15;;
47856;SDS011;33618;49.972;8.242;2022-08-18T15:31:48;8.93;;;8.23;;
47856;SDS011;33618;49.972;8.242;2022-08-18T15:41:35;9.00;;;8.30;;
47856;SDS011;33618;49.972;8.242;2022-08-18T15:44:10;8.35;;;7.75;;
47856;SDS011;33618;49.972;8.242;2022-08-18T15:46:41;8.93;;;7.38;;
47856;SDS011;33618;49.972;8.242;2022-08-18T15:49:18;8.18;;;7.57;;
47856;SDS011;33618;49.972;8.242;2022-08-18T15:51:48;7.88;;;7.18;;
47856;SDS011;33618;49.972;8.242;2022-08-18T15:54:17;8.38;;;7.68;;
47856;SDS011;33618;49.972;8.242;2022-08-18T15:56:46;8.95;;;8.05;;
47856;SDS011;33618;49.972;8.242;2022-08-18T15:59:23;7.50;;;7.00;;
47856;SDS011;33618;49.972;8.242;2022-08-18T16:01:59;9.15;;;7.55;;
47856;SDS011;33618;49.972;8.242;2022-08-18T16:04:27;8.77;;;8.07;;
47856;SDS011;33618;49.972;8.242;2022-08-18T16:06:54;7.80;;;7.20;;
47856;SDS011;33618;49.972;8.242;2022-08-18T16:09:21;7.93;;;7.20;;
47856;SDS011;33618;49.972;8.242;2022-08-18T16:11:48;8.43;;;7.70;;
47856;SDS011;33618;49.972;8.242;2022-08-18T16:14:15;8.85;;;8.07;;
47856;SDS011;33618;49.972;8.242;2022-08-18T16:16:42;9.85;;;8.30;;
47856;SDS011;33618;49.972;8.242;2022-08-18T16:19:08;8.68;;;7.88;;
47856;SDS011;33618;49.972;8.242;2022-08-18T16:21:35;8.70;;;7.90;;
47856;SDS011;33618;49.972;8.242;2022-08-18T16:24:06;9.77;;;8.88;;
47856;SDS011;33618;49.972;8.242;2022-08-18T16:26:33;15.00;;;9.18;;
47856;SDS011;33618;49.972;8.242;2022-08-18T16:29:00;9.35;;;7.93;;
47856;SDS011;33618;49.972;8.242;2022-08-18T16:31:27;9.57;;;8.65;;
47856;SDS011;33618;49.972;8.242;2022-08-18T16:33:55;9.32;;;8.43;;
47856;SDS011;33618;49.972;8.242;2022-08-18T16:40:36;9.23;;;8.40;;
47856;SDS011;33618;49.972;8.242;2022-08-18T16:43:03;10.02;;;9.02;;
47856;SDS011;33618;49.972;8.242;2022-08-18T16:45:32;16.65;;;9.05;;
47856;SDS011;33618;49.972;8.242;2022-08-18T16:48:01;10.20;;;8.88;;
47856;SDS011;33618;49.972;8.242;2022-08-18T16:50:30;9.55;;;8.52;;
47856;SDS011;33618;49.972;8.242;2022-08-18T16:52:57;11.90;;;8.77;;
47856;SDS011;33618;49.972;8.242;2022-08-18T16:55:23;11.20;;;8.30;;
47856;SDS011;33618;49.972;8.242;2022-08-18T16:57:51;12.95;;;8.88;;
47856;SDS011;33618;49.972;8.242;2022-08-18T17:00:41;10.57;;;8.90;;
47856;SDS011;33618;49.972;8.242;2022-08-18T17:03:27;9.45;;;8.48;;
47856;SDS011;33618;49.972;8.242;2022-08-18T17:06:14;9.53;;;8.53;;
47856;SDS011;33618;49.972;8.242;2022-08-18T17:08:42;9.63;;;8.52;;
47856;SDS011;33618;49.972;8.242;2022-08-18T17:11:11;11.15;;;8.75;;
47856;SDS011;33618;49.972;8.242;2022-08-18T17:13:40;9.93;;;8.90;;
47856;SDS011;33618;49.972;8.242;2022-08-18T17:16:08;9.82;;;8.35;;
47856;SDS011;33618;49.972;8.242;2022-08-18T17:18:36;10.50;;;8.05;;
47856;SDS011;33618;49.972;8.242;2022-08-18T17:21:05;9.38;;;8.48;;
47856;SDS011;33618;49.972;8.242;2022-08-18T17:23:34;12.60;;;8.32;;
47856;SDS011;33618;49.972;8.242;2022-08-18T17:26:05;11.07;;;8.75;;
47856;SDS011;33618;49.972;8.242;2022-08-18T17:28:41;10.38;;;8.43;;
47856;SDS011;33618;49.972;8.242;2022-08-18T17:31:17;9.55;;;8.52;;
47856;SDS011;33618;49.972;8.242;2022-08-18T17:33:45;11.20;;;8.60;;
47856;SDS011;33618;49.972;8.242;2022-08-18T17:40:34;8.75;;;7.95;;
47856;SDS011;33618;49.972;8.242;2022-08-18T17:43:11;9.43;;;8.45;;
47856;SDS011;33618;49.972;8.242;2022-08-18T17:45:41;9.02;;;8.18;;
47856;SDS011;33618;49.972;8.242;2022-08-18T17:48:15;9.63;;;8.55;;
47856;SDS011;33618;49.972;8.242;2022-08-18T17:50:50;9.40;;;8.30;;
47856;SDS011;33618;49.972;8.242;2022-08-18T17:53:36;9.90;;;8.25;;
47856;SDS011;33618;49.972;8.242;2022-08-18T17:59:06;9.23;;;7.75;;
47856;SDS011;33618;49.972;8.242;2022-08-18T18:02:06;8.60;;;7.72;;
47856;SDS011;33618;49.972;8.242;2022-08-18T18:04:44;10.02;;;8.10;;
47856;SDS011;33618;49.972;8.242;2022-08-18T18:07:52;8.73;;;7.78;;
47856;SDS011;33618;49.972;8.242;2022-08-18T18:10:20;11.02;;;7.85;;
47856;SDS011;33618;49.972;8.242;2022-08-18T18:13:03;10.90;;;8.60;;
47856;SDS011;33618;49.972;8.242;2022-08-18T18:15:34;9.43;;;7.90;;
47856;SDS011;33618;49.972;8.242;2022-08-18T18:18:16;8.45;;;7.47;;
47856;SDS011;33618;49.972;8.242;2022-08-18T18:20:58;10.10;;;8.60;;
47856;SDS011;33618;49.972;8.242;2022-08-18T18:23:34;10.27;;;8.10;;
47856;SDS011;33618;49.972;8.242;2022-08-18T18:34:36;9.70;;;8.35;;
47856;SDS011;33618;49.972;8.242;2022-08-18T18:41:29;9.50;;;8.50;;
47856;SDS011;33618;49.972;8.242;2022-08-18T18:44:07;9.88;;;8.88;;
47856;SDS011;33618;49.972;8.242;2022-08-18T18:46:39;9.52;;;8.48;;
47856;SDS011;33618;49.972;8.242;2022-08-18T18:49:30;11.88;;;8.50;;
47856;SDS011;33618;49.972;8.242;2022-08-18T18:52:21;12.98;;;9.48;;
47856;SDS011;33618;49.972;8.242;2022-08-18T18:55:03;11.65;;;8.88;;
47856;SDS011;33618;49.972;8.242;2022-08-18T18:57:48;12.95;;;10.32;;
47856;SDS011;33618;49.972;8.242;2022-08-18T19:14:07;10.68;;;9.25;;
47856;SDS011;33618;49.972;8.242;2022-08-18T19:16:51;12.07;;;9.65;;
47856;SDS011;33618;49.972;8.242;2022-08-18T19:19:33;10.50;;;8.70;;
47856;SDS011;33618;49.972;8.242;2022-08-18T19:22:20;10.80;;;8.68;;
47856;SDS011;33618;49.972;8.242;2022-08-18T19:25:16;14.77;;;9.70;;
47856;SDS011;33618;49.972;8.242;2022-08-18T19:27:47;13.32;;;9.82;;
47856;SDS011;33618;49.972;8.242;2022-08-18T19:30:19;10.93;;;9.05;;
47856;SDS011;33618;49.972;8.242;2022-08-18T19:32:53;14.25;;;9.77;;
47856;SDS011;33618;49.972;8.242;2022-08-18T19:35:34;13.40;;;10.15;;
47856;SDS011;33618;49.972;8.242;2022-08-18T19:45:47;15.55;;;9.90;;
47856;SDS011;33618;49.972;8.242;2022-08-18T19:48:27;11.73;;;9.82;;
47856;SDS011;33618;49.972;8.242;2022-08-18T19:51:28;14.15;;;11.02;;
47856;SDS011;33618;49.972;8.242;2022-08-18T20:10:21;12.75;;;9.65;;
47856;SDS011;33618;49.972;8.242;2022-08-18T20:13:03;14.80;;;10.85;;
47856;SDS011;33618;49.972;8.242;2022-08-18T20:18:31;14.32;;;10.30;;
47856;SDS011;33618;49.972;8.242;2022-08-18T20:29:06;13.60;;;10.48;;
47856;SDS011;33618;49.972;8.242;2022-08-18T20:40:56;12.00;;;9.63;;
47856;SDS011;33618;49.972;8.242;2022-08-18T20:43:32;12.35;;;10.30;;
47856;SDS011;33618;49.972;8.242;2022-08-18T20:48:43;11.35;;;9.88;;
47856;SDS011;33618;49.972;8.242;2022-08-18T20:51:32;12.35;;;10.27;;
47856;SDS011;33618;49.972;8.242;2022-08-18T20:54:25;11.05;;;9.80;;
47856;SDS011;33618;49.972;8.242;2022-08-18T20:57:15;11.95;;;10.45;;
47856;SDS011;33618;49.972;8.242;2022-08-18T20:59:47;13.10;;;10.35;;
47856;SDS011;33618;49.972;8.242;2022-08-18T21:02:28;13.02;;;10.70;;
47856;SDS011;33618;49.972;8.242;2022-08-18T21:05:00;13.63;;;10.88;;
47856;SDS011;33618;49.972;8.242;2022-08-18T21:07:31;12.13;;;10.43;;
47856;SDS011;33618;49.972;8.242;2022-08-18T21:13:01;11.23;;;10.02;;
47856;SDS011;33618;49.972;8.242;2022-08-18T21:15:33;12.02;;;10.27;;
47856;SDS011;33618;49.972;8.242;2022-08-18T21:18:16;10.90;;;9.80;;
47856;SDS011;33618;49.972;8.242;2022-08-18T21:20:46;14.00;;;11.00;;
47856;SDS011;33618;49.972;8.242;2022-08-18T21:23:14;11.75;;;10.55;;
47856;SDS011;33618;49.972;8.242;2022-08-18T21:26:12;10.95;;;9.80;;
47856;SDS011;33618;49.972;8.242;2022-08-18T21:28:42;11.75;;;10.27;;
47856;SDS011;33618;49.972;8.242;2022-08-18T21:31:24;14.13;;;10.40;;